sensor_id;sensor_type;location;lat;lon;timestamp;pressure;altitude;pressure_sealevel;temperature;humidity
64078;BME280;51039;49.696;10.808;2023-07-29T00:00:41;97914.72;;;17.37;100.00
64078;BME280;51039;49.696;10.808;2023-07-29T00:03:07;97906.16;;;17.35;100.00
64078;BME280;51039;49.696;10.808;2023-07-29T00:05:33;97906.69;;;17.37;100.00
64078;BME280;51039;49.696;10.808;2023-07-29T00:07:58;97893.31;;;17.37;100.00
64078;BME280;51039;49.696;10.808;2023-07-29T00:10:23;97897.88;;;17.36;100.00
64078;BME280;51039;49.696;10.808;2023-07-29T00:12:49;97892.97;;;17.28;100.00
64078;BME280;51039;49.696;10.808;2023-07-29T00:15:14;97894.09;;;17.37;100.00
64078;BME280;51039;49.696;10.808;2023-07-29T00:17:39;97890.13;;;17.40;100.00
64078;BME280;51039;49.696;10.808;2023-07-29T00:20:05;97889.84;;;17.41;100.00
64078;BME280;51039;49.696;10.808;2023-07-29T00:22:31;97889.03;;;17.41;100.00
64078;BME280;51039;49.696;10.808;2023-07-29T00:24:57;97888.25;;;17.40;100.00
64078;BME280;51039;49.696;10.808;2023-07-29T00:27:24;97888.50;;;17.39;100.00
64078;BME280;51039;49.696;10.808;2023-07-29T00:29:49;97894.09;;;17.37;100.00
64078;BME280;51039;49.696;10.808;2023-07-29T00:32:15;97885.53;;;17.35;100.00
64078;BME280;51039;49.696;10.808;2023-07-29T00:34:40;97881.25;;;17.34;100.00
64078;BME280;51039;49.696;10.808;2023-07-29T00:37:05;97886.59;;;17.34;100.00
64078;BME280;51039;49.696;10.808;2023-07-29T00:39:31;97887.09;;;17.31;100.00
64078;BME280;51039;49.696;10.808;2023-07-29T00:41:57;97892.47;;;17.31;100.00
64078;BME280;51039;49.696;10.808;2023-07-29T00:44:23;97885.22;;;17.32;100.00
64078;BME280;51039;49.696;10.808;2023-07-29T00:46:49;97890.03;;;17.30;100.00
64078;BME280;51039;49.696;10.808;2023-07-29T00:49:17;97884.44;;;17.31;100.00
64078;BME280;51039;49.696;10.808;2023-07-29T00:51:44;97884.69;;;17.30;100.00
64078;BME280;51039;49.696;10.808;2023-07-29T00:54:09;97884.44;;;17.31;100.00
64078;BME280;51039;49.696;10.808;2023-07-29T00:56:35;97883.63;;;17.31;100.00
64078;BME280;51039;49.696;10.808;2023-07-29T00:59:01;97889.78;;;17.31;100.00
64078;BME280;51039;49.696;10.808;2023-07-29T01:01:27;97887.38;;;17.30;100.00
64078;BME280;51039;49.696;10.808;2023-07-29T01:03:53;97896.47;;;17.29;100.00
64078;BME280;51039;49.696;10.808;2023-07-29T01:09:06;97890.28;;;17.23;100.00
64078;BME280;51039;49.696;10.808;2023-07-29T01:11:46;97889.97;;;17.19;100.00
64078;BME280;51039;49.696;10.808;2023-07-29T01:14:19;97887.00;;;17.16;100.00
64078;BME280;51039;49.696;10.808;2023-07-29T01:16:53;97894.25;;;17.15;100.00
64078;BME280;51039;49.696;10.808;2023-07-29T01:19:33;97895.28;;;17.14;100.00
64078;BME280;51039;49.696;10.808;2023-07-29T01:22:10;97899.84;;;17.14;100.00
64078;BME280;51039;49.696;10.808;2023-07-29T01:24:37;97897.41;;;17.12;100.00
64078;BME280;51039;49.696;10.808;2023-07-29T01:27:03;97897.97;;;17.14;100.00
64078;BME280;51039;49.696;10.808;2023-07-29T01:29:29;97896.13;;;17.20;100.00
64078;BME280;51039;49.696;10.808;2023-07-29T01:31:56;97896.19;;;17.25;100.00
64078;BME280;51039;49.696;10.808;2023-07-29T01:34:32;97888.69;;;17.27;100.00
64078;BME280;51039;49.696;10.808;2023-07-29T01:37:04;97898.06;;;17.30;100.00
64078;BME280;51039;49.696;10.808;2023-07-29T01:39:36;97894.03;;;17.27;100.00
64078;BME280;51039;49.696;10.808;2023-07-29T01:42:02;97898.06;;;17.30;100.00
64078;BME280;51039;49.696;10.808;2023-07-29T01:44:28;97896.19;;;17.30;100.00
64078;BME280;51039;49.696;10.808;2023-07-29T01:46:55;97883.94;;;17.34;100.00
64078;BME280;51039;49.696;10.808;2023-07-29T01:49:21;97894.03;;;17.27;100.00
64078;BME280;51039;49.696;10.808;2023-07-29T01:51:46;97890.56;;;17.26;100.00
64078;BME280;51039;49.696;10.808;2023-07-29T01:54:11;97889.72;;;17.21;100.00
64078;BME280;51039;49.696;10.808;2023-07-29T01:56:37;97887.50;;;17.13;100.00
64078;BME280;51039;49.696;10.808;2023-07-29T01:59:02;97889.63;;;17.05;100.00
64078;BME280;51039;49.696;10.808;2023-07-29T02:01:27;97885.53;;;16.98;100.00
64078;BME280;51039;49.696;10.808;2023-07-29T02:03:53;97883.88;;;16.92;100.00
64078;BME280;51039;49.696;10.808;2023-07-29T02:06:20;97881.34;;;16.80;100.00
64078;BME280;51039;49.696;10.808;2023-07-29T02:08:46;97880.47;;;16.74;100.00
64078;BME280;51039;49.696;10.808;2023-07-29T02:11:11;97872.69;;;16.67;100.00
64078;BME280;51039;49.696;10.808;2023-07-29T02:13:36;97874.25;;;16.63;100.00
64078;BME280;51039;49.696;10.808;2023-07-29T02:16:02;97876.88;;;16.58;100.00
64078;BME280;51039;49.696;10.808;2023-07-29T02:18:27;97865.06;;;16.54;100.00
64078;BME280;51039;49.696;10.808;2023-07-29T02:20:53;97867.44;;;16.51;100.00
64078;BME280;51039;49.696;10.808;2023-07-29T02:23:18;97855.09;;;16.44;100.00
64078;BME280;51039;49.696;10.808;2023-07-29T02:25:44;97854.00;;;16.40;100.00
64078;BME280;51039;49.696;10.808;2023-07-29T02:28:09;97856.34;;;16.37;100.00
64078;BME280;51039;49.696;10.808;2023-07-29T02:30:34;97848.03;;;16.33;100.00
64078;BME280;51039;49.696;10.808;2023-07-29T02:33:00;97836.72;;;16.26;100.00
64078;BME280;51039;49.696;10.808;2023-07-29T02:35:26;97838.06;;;16.23;100.00
64078;BME280;51039;49.696;10.808;2023-07-29T02:37:53;97827.84;;;16.20;100.00
64078;BME280;51039;49.696;10.808;2023-07-29T02:40:18;97828.94;;;16.19;100.00
64078;BME280;51039;49.696;10.808;2023-07-29T02:42:45;97827.84;;;16.20;100.00
64078;BME280;51039;49.696;10.808;2023-07-29T02:45:11;97830.28;;;16.22;100.00
64078;BME280;51039;49.696;10.808;2023-07-29T02:47:37;97828.41;;;16.22;100.00
64078;BME280;51039;49.696;10.808;2023-07-29T02:50:03;97821.22;;;16.23;100.00
64078;BME280;51039;49.696;10.808;2023-07-29T02:52:28;97823.03;;;16.17;100.00
64078;BME280;51039;49.696;10.808;2023-07-29T02:54:54;97827.00;;;16.15;100.00
64078;BME280;51039;49.696;10.808;2023-07-29T02:57:19;97841.63;;;16.07;100.00
64078;BME280;51039;49.696;10.808;2023-07-29T02:59:45;97848.28;;;16.04;100.00
64078;BME280;51039;49.696;10.808;2023-07-29T03:02:10;97847.16;;;16.00;100.00
64078;BME280;51039;49.696;10.808;2023-07-29T03:04:36;97845.28;;;16.01;100.00
64078;BME280;51039;49.696;10.808;2023-07-29T03:07:01;97844.75;;;15.99;100.00
64078;BME280;51039;49.696;10.808;2023-07-29T03:09:27;97841.19;;;15.93;100.00
64078;BME280;51039;49.696;10.808;2023-07-29T03:11:52;97849.72;;;15.90;100.00
64078;BME280;51039;49.696;10.808;2023-07-29T03:14:19;97844.38;;;15.90;100.00
64078;BME280;51039;49.696;10.808;2023-07-29T03:16:45;97843.28;;;15.86;100.00
64078;BME280;51039;49.696;10.808;2023-07-29T03:19:11;97839.22;;;15.83;100.00
64078;BME280;51039;49.696;10.808;2023-07-29T03:21:37;97837.94;;;15.86;100.00
64078;BME280;51039;49.696;10.808;2023-07-29T03:24:02;97832.84;;;15.84;100.00
64078;BME280;51039;49.696;10.808;2023-07-29T03:26:28;97840.03;;;15.84;100.00
64078;BME280;51039;49.696;10.808;2023-07-29T03:28:53;97840.03;;;15.84;100.00
64078;BME280;51039;49.696;10.808;2023-07-29T03:31:18;97833.09;;;15.83;100.00
64078;BME280;51039;49.696;10.808;2023-07-29T03:33:44;97831.75;;;15.85;100.00
64078;BME280;51039;49.696;10.808;2023-07-29T03:36:09;97831.53;;;15.87;100.00
64078;BME280;51039;49.696;10.808;2023-07-29T03:38:35;97831.84;;;15.90;100.00
64078;BME280;51039;49.696;10.808;2023-07-29T03:41:04;97831.06;;;15.95;100.00
64078;BME280;51039;49.696;10.808;2023-07-29T03:43:29;97826.59;;;16.01;100.00
64078;BME280;51039;49.696;10.808;2023-07-29T03:45:55;97822.41;;;16.10;100.00
64078;BME280;51039;49.696;10.808;2023-07-29T03:48:20;97822.72;;;16.14;100.00
64078;BME280;51039;49.696;10.808;2023-07-29T03:50:45;97806.69;;;16.14;100.00
64078;BME280;51039;49.696;10.808;2023-07-29T03:53:11;97814.78;;;16.19;100.00
64078;BME280;51039;49.696;10.808;2023-07-29T03:55:36;97815.34;;;16.26;100.00
64078;BME280;51039;49.696;10.808;2023-07-29T03:58:02;97814.91;;;16.34;100.00
64078;BME280;51039;49.696;10.808;2023-07-29T04:00:27;97814.44;;;16.42;100.00
64078;BME280;51039;49.696;10.808;2023-07-29T04:02:52;97807.59;;;16.52;100.00
64078;BME280;51039;49.696;10.808;2023-07-29T04:05:18;97802.00;;;16.58;100.00
64078;BME280;51039;49.696;10.808;2023-07-29T04:07:43;97805.59;;;16.69;100.00
64078;BME280;51039;49.696;10.808;2023-07-29T04:10:09;97796.53;;;16.75;100.00
64078;BME280;51039;49.696;10.808;2023-07-29T04:12:34;97802.13;;;16.74;100.00
64078;BME280;51039;49.696;10.808;2023-07-29T04:15:00;97804.69;;;16.91;100.00
64078;BME280;51039;49.696;10.808;2023-07-29T04:17:25;97802.91;;;17.06;100.00
64078;BME280;51039;49.696;10.808;2023-07-29T04:19:51;97809.19;;;17.85;100.00
64078;BME280;51039;49.696;10.808;2023-07-29T04:22:16;97806.31;;;18.18;100.00
64078;BME280;51039;49.696;10.808;2023-07-29T04:24:42;97809.84;;;18.70;100.00
64078;BME280;51039;49.696;10.808;2023-07-29T04:27:07;97811.22;;;18.93;100.00
64078;BME280;51039;49.696;10.808;2023-07-29T04:29:32;97804.72;;;19.19;100.00
64078;BME280;51039;49.696;10.808;2023-07-29T04:32:00;97809.81;;;19.21;100.00
64078;BME280;51039;49.696;10.808;2023-07-29T04:34:26;97819.53;;;19.01;100.00
64078;BME280;51039;49.696;10.808;2023-07-29T04:36:51;97821.16;;;18.92;100.00
64078;BME280;51039;49.696;10.808;2023-07-29T04:39:17;97827.31;;;18.82;100.00
64078;BME280;51039;49.696;10.808;2023-07-29T04:41:43;97828.66;;;18.80;100.00
64078;BME280;51039;49.696;10.808;2023-07-29T04:44:08;97811.47;;;18.55;100.00
64078;BME280;51039;49.696;10.808;2023-07-29T04:46:33;97806.28;;;17.92;100.00
64078;BME280;51039;49.696;10.808;2023-07-29T04:49:00;97801.63;;;17.72;100.00
64078;BME280;51039;49.696;10.808;2023-07-29T04:51:25;97802.41;;;17.67;100.00
64078;BME280;51039;49.696;10.808;2023-07-29T04:53:51;97803.41;;;17.51;100.00
64078;BME280;51039;49.696;10.808;2023-07-29T04:56:16;97788.88;;;17.32;100.00
64078;BME280;51039;49.696;10.808;2023-07-29T04:58:42;97788.31;;;17.30;100.00
64078;BME280;51039;49.696;10.808;2023-07-29T05:01:07;97782.72;;;17.31;100.00
64078;BME280;51039;49.696;10.808;2023-07-29T05:03:32;97777.34;;;17.31;100.00
64078;BME280;51039;49.696;10.808;2023-07-29T05:05:58;97765.88;;;17.41;100.00
64078;BME280;51039;49.696;10.808;2023-07-29T05:08:24;97766.75;;;17.52;100.00
64078;BME280;51039;49.696;10.808;2023-07-29T05:10:51;97768.13;;;17.59;100.00
64078;BME280;51039;49.696;10.808;2023-07-29T05:13:17;97772.13;;;17.62;100.00
64078;BME280;51039;49.696;10.808;2023-07-29T05:15:43;97761.22;;;17.79;100.00
64078;BME280;51039;49.696;10.808;2023-07-29T05:18:09;97764.72;;;17.84;100.00
64078;BME280;51039;49.696;10.808;2023-07-29T05:20:34;97771.38;;;17.77;100.00
64078;BME280;51039;49.696;10.808;2023-07-29T05:23:00;97765.53;;;17.85;100.00
64078;BME280;51039;49.696;10.808;2023-07-29T05:25:25;97772.75;;;17.90;100.00
64078;BME280;51039;49.696;10.808;2023-07-29T05:27:51;97774.09;;;17.87;100.00
64078;BME280;51039;49.696;10.808;2023-07-29T05:30:16;97769.75;;;17.76;100.00
64078;BME280;51039;49.696;10.808;2023-07-29T05:32:42;97767.94;;;17.87;100.00
64078;BME280;51039;49.696;10.808;2023-07-29T05:35:07;97777.34;;;17.99;100.00
64078;BME280;51039;49.696;10.808;2023-07-29T05:37:33;97776.84;;;18.08;100.00
64078;BME280;51039;49.696;10.808;2023-07-29T05:39:58;97776.31;;;18.16;100.00
64078;BME280;51039;49.696;10.808;2023-07-29T05:42:23;97780.84;;;18.10;100.00
64078;BME280;51039;49.696;10.808;2023-07-29T05:44:49;97780.03;;;18.15;100.00
64078;BME280;51039;49.696;10.808;2023-07-29T05:47:14;97781.13;;;18.14;100.00
64078;BME280;51039;49.696;10.808;2023-07-29T05:49:39;97786.75;;;18.12;100.00
64078;BME280;51039;49.696;10.808;2023-07-29T05:52:05;97793.97;;;18.07;100.00
64078;BME280;51039;49.696;10.808;2023-07-29T05:54:30;97784.88;;;18.13;100.00
64078;BME280;51039;49.696;10.808;2023-07-29T05:56:56;97789.16;;;18.09;100.00
64078;BME280;51039;49.696;10.808;2023-07-29T05:59:21;97790.78;;;18.10;100.00
64078;BME280;51039;49.696;10.808;2023-07-29T06:01:46;97789.97;;;18.09;100.00
64078;BME280;51039;49.696;10.808;2023-07-29T06:04:12;97788.09;;;18.20;100.00
64078;BME280;51039;49.696;10.808;2023-07-29T06:06:37;97793.44;;;18.15;100.00
64078;BME280;51039;49.696;10.808;2023-07-29T06:09:02;97799.34;;;18.07;100.00
64078;BME280;51039;49.696;10.808;2023-07-29T06:11:28;97800.66;;;17.94;100.00
64078;BME280;51039;49.696;10.808;2023-07-29T06:13:53;97794.47;;;17.93;100.00
64078;BME280;51039;49.696;10.808;2023-07-29T06:16:18;97790.19;;;17.87;100.00
64078;BME280;51039;49.696;10.808;2023-07-29T06:18:45;97789.66;;;17.90;100.00
64078;BME280;51039;49.696;10.808;2023-07-29T06:21:10;97792.34;;;17.95;100.00
64078;BME280;51039;49.696;10.808;2023-07-29T06:23:41;97815.09;;;17.88;100.00
64078;BME280;51039;49.696;10.808;2023-07-29T06:26:07;97809.47;;;17.89;100.00
64078;BME280;51039;49.696;10.808;2023-07-29T06:28:32;97792.88;;;17.87;100.00
64078;BME280;51039;49.696;10.808;2023-07-29T06:30:57;97791.81;;;17.88;100.00
64078;BME280;51039;49.696;10.808;2023-07-29T06:33:23;97787.59;;;18.23;100.00
64078;BME280;51039;49.696;10.808;2023-07-29T06:35:48;97794.03;;;18.53;100.00
64078;BME280;51039;49.696;10.808;2023-07-29T06:38:13;97796.72;;;18.63;100.00
64078;BME280;51039;49.696;10.808;2023-07-29T06:40:39;97799.94;;;18.50;100.00
64078;BME280;51039;49.696;10.808;2023-07-29T06:43:04;97798.81;;;18.30;100.00
64078;BME280;51039;49.696;10.808;2023-07-29T06:45:30;97806.09;;;18.24;100.00
64078;BME280;51039;49.696;10.808;2023-07-29T06:47:55;97818.88;;;17.97;100.00
64078;BME280;51039;49.696;10.808;2023-07-29T06:50:20;97815.06;;;17.82;100.00
64078;BME280;51039;49.696;10.808;2023-07-29T06:52:46;97814.56;;;17.85;100.00
64078;BME280;51039;49.696;10.808;2023-07-29T06:55:11;97814.75;;;17.74;100.00
64078;BME280;51039;49.696;10.808;2023-07-29T06:57:36;97818.06;;;17.96;100.00
64078;BME280;51039;49.696;10.808;2023-07-29T07:00:02;97817.56;;;18.10;100.00
64078;BME280;51039;49.696;10.808;2023-07-29T07:02:28;97807.91;;;18.09;100.00
64078;BME280;51039;49.696;10.808;2023-07-29T07:04:53;97812.50;;;18.13;100.00
64078;BME280;51039;49.696;10.808;2023-07-29T07:07:19;97807.44;;;18.32;100.00
64078;BME280;51039;49.696;10.808;2023-07-29T07:09:44;97803.94;;;18.37;100.00
64078;BME280;51039;49.696;10.808;2023-07-29T07:12:09;97802.59;;;18.44;100.00
64078;BME280;51039;49.696;10.808;2023-07-29T07:14:36;97798.31;;;18.49;100.00
64078;BME280;51039;49.696;10.808;2023-07-29T07:17:02;97780.88;;;18.56;100.00
64078;BME280;51039;49.696;10.808;2023-07-29T07:19:27;97777.38;;;18.61;100.00
64078;BME280;51039;49.696;10.808;2023-07-29T07:21:52;97779.28;;;18.45;100.00
64078;BME280;51039;49.696;10.808;2023-07-29T07:24:18;97790.81;;;18.35;100.00
64078;BME280;51039;49.696;10.808;2023-07-29T07:26:43;97786.00;;;18.32;100.00
64078;BME280;51039;49.696;10.808;2023-07-29T07:29:08;97787.56;;;18.28;100.00
64078;BME280;51039;49.696;10.808;2023-07-29T07:31:34;97778.19;;;18.25;100.00
64078;BME280;51039;49.696;10.808;2023-07-29T07:34:00;97777.69;;;18.44;100.00
64078;BME280;51039;49.696;10.808;2023-07-29T07:36:27;97784.66;;;18.55;100.00
64078;BME280;51039;49.696;10.808;2023-07-29T07:38:52;97772.56;;;18.68;100.00
64078;BME280;51039;49.696;10.808;2023-07-29T07:41:17;97779.00;;;18.93;100.00
64078;BME280;51039;49.696;10.808;2023-07-29T07:43:43;97760.78;;;18.85;100.00
64078;BME280;51039;49.696;10.808;2023-07-29T07:46:08;97746.28;;;18.96;100.00
64078;BME280;51039;49.696;10.808;2023-07-29T07:48:33;97743.06;;;18.83;100.00
64078;BME280;51039;49.696;10.808;2023-07-29T07:50:59;97733.41;;;18.82;100.00
64078;BME280;51039;49.696;10.808;2023-07-29T07:53:24;97729.91;;;18.92;100.00
64078;BME280;51039;49.696;10.808;2023-07-29T07:55:50;97740.91;;;18.91;100.00
64078;BME280;51039;49.696;10.808;2023-07-29T07:58:16;97765.03;;;19.01;100.00
64078;BME280;51039;49.696;10.808;2023-07-29T08:00:41;97751.38;;;18.92;100.00
64078;BME280;51039;49.696;10.808;2023-07-29T08:03:07;97751.59;;;19.06;100.00
64078;BME280;51039;49.696;10.808;2023-07-29T08:05:33;97742.41;;;19.28;100.00
64078;BME280;51039;49.696;10.808;2023-07-29T08:07:58;97740.41;;;19.54;100.00
64078;BME280;51039;49.696;10.808;2023-07-29T08:10:24;97765.59;;;19.78;100.00
64078;BME280;51039;49.696;10.808;2023-07-29T08:12:49;97761.13;;;20.03;100.00
64078;BME280;51039;49.696;10.808;2023-07-29T08:15:14;97737.41;;;20.45;100.00
64078;BME280;51039;49.696;10.808;2023-07-29T08:17:40;97740.34;;;20.83;100.00
64078;BME280;51039;49.696;10.808;2023-07-29T08:20:05;97746.28;;;20.45;100.00
64078;BME280;51039;49.696;10.808;2023-07-29T08:22:31;97747.22;;;20.30;100.00
64078;BME280;51039;49.696;10.808;2023-07-29T08:24:57;97763.41;;;20.25;100.00
64078;BME280;51039;49.696;10.808;2023-07-29T08:27:22;97759.94;;;20.19;100.00
64078;BME280;51039;49.696;10.808;2023-07-29T08:29:47;97762.25;;;19.92;100.00
64078;BME280;51039;49.696;10.808;2023-07-29T08:32:13;97768.31;;;20.13;100.00
64078;BME280;51039;49.696;10.808;2023-07-29T08:34:38;97771.84;;;20.48;100.00
64078;BME280;51039;49.696;10.808;2023-07-29T08:37:03;97781.88;;;21.01;100.00
64078;BME280;51039;49.696;10.808;2023-07-29T08:39:29;97781.44;;;21.17;100.00
64078;BME280;51039;49.696;10.808;2023-07-29T08:41:57;97776.91;;;21.13;100.00
64078;BME280;51039;49.696;10.808;2023-07-29T08:44:36;97784.00;;;21.04;100.00
64078;BME280;51039;49.696;10.808;2023-07-29T08:47:07;97789.91;;;21.06;100.00
64078;BME280;51039;49.696;10.808;2023-07-29T08:49:33;97786.34;;;21.10;100.00
64078;BME280;51039;49.696;10.808;2023-07-29T08:51:59;97780.47;;;21.08;100.00
64078;BME280;51039;49.696;10.808;2023-07-29T08:54:26;97780.06;;;20.96;100.00
64078;BME280;51039;49.696;10.808;2023-07-29T08:56:51;97791.41;;;21.41;100.00
64078;BME280;51039;49.696;10.808;2023-07-29T08:59:17;97786.66;;;21.33;100.00
64078;BME280;51039;49.696;10.808;2023-07-29T09:01:43;97781.78;;;21.59;100.00
64078;BME280;51039;49.696;10.808;2023-07-29T09:04:09;97783.06;;;22.05;100.00
64078;BME280;51039;49.696;10.808;2023-07-29T09:06:35;97791.13;;;22.29;97.53
64078;BME280;51039;49.696;10.808;2023-07-29T09:09:01;97792.16;;;22.66;97.43
64078;BME280;51039;49.696;10.808;2023-07-29T09:11:27;97789.41;;;22.85;94.22
64078;BME280;51039;49.696;10.808;2023-07-29T09:13:53;97801.50;;;23.62;89.81
64078;BME280;51039;49.696;10.808;2023-07-29T09:16:20;97806.88;;;23.89;86.63
64078;BME280;51039;49.696;10.808;2023-07-29T09:18:49;97803.41;;;24.48;82.59
64078;BME280;51039;49.696;10.808;2023-07-29T09:21:22;97800.28;;;23.68;85.55
64078;BME280;51039;49.696;10.808;2023-07-29T09:23:53;97804.34;;;22.96;90.37
64078;BME280;51039;49.696;10.808;2023-07-29T09:26:26;97805.69;;;22.28;92.99
64078;BME280;51039;49.696;10.808;2023-07-29T09:28:53;97811.16;;;22.42;94.07
64078;BME280;51039;49.696;10.808;2023-07-29T09:31:21;97810.59;;;22.78;92.27
64078;BME280;51039;49.696;10.808;2023-07-29T09:33:47;97802.41;;;24.21;84.71
64078;BME280;51039;49.696;10.808;2023-07-29T09:36:13;97810.19;;;24.82;79.71
64078;BME280;51039;49.696;10.808;2023-07-29T09:38:39;97806.41;;;25.54;77.63
64078;BME280;51039;49.696;10.808;2023-07-29T09:41:05;97795.91;;;25.21;78.18
64078;BME280;51039;49.696;10.808;2023-07-29T09:43:31;97802.78;;;24.28;82.37
64078;BME280;51039;49.696;10.808;2023-07-29T09:46:00;97799.72;;;25.20;79.12
64078;BME280;51039;49.696;10.808;2023-07-29T09:48:27;97804.25;;;26.96;69.62
64078;BME280;51039;49.696;10.808;2023-07-29T09:50:55;97789.97;;;28.69;64.47
64078;BME280;51039;49.696;10.808;2023-07-29T09:53:21;97793.78;;;28.55;62.89
64078;BME280;51039;49.696;10.808;2023-07-29T09:55:47;97792.94;;;28.22;65.31
64078;BME280;51039;49.696;10.808;2023-07-29T09:58:19;97785.22;;;28.45;65.86
64078;BME280;51039;49.696;10.808;2023-07-29T10:00:52;97787.97;;;28.24;63.83
64078;BME280;51039;49.696;10.808;2023-07-29T10:03:18;97783.34;;;27.35;66.55
64078;BME280;51039;49.696;10.808;2023-07-29T10:05:46;97777.75;;;26.93;68.47
64078;BME280;51039;49.696;10.808;2023-07-29T10:08:12;97767.34;;;25.64;71.74
64078;BME280;51039;49.696;10.808;2023-07-29T10:10:39;97754.56;;;25.47;72.04
64078;BME280;51039;49.696;10.808;2023-07-29T10:13:09;97753.75;;;25.06;76.48
64078;BME280;51039;49.696;10.808;2023-07-29T10:15:34;97764.25;;;25.97;71.70
64078;BME280;51039;49.696;10.808;2023-07-29T10:18:01;97756.75;;;26.20;70.84
64078;BME280;51039;49.696;10.808;2023-07-29T10:20:28;97760.69;;;25.88;72.87
64078;BME280;51039;49.696;10.808;2023-07-29T10:22:59;97765.03;;;25.31;73.19
64078;BME280;51039;49.696;10.808;2023-07-29T10:25:26;97775.22;;;26.44;70.35
64078;BME280;51039;49.696;10.808;2023-07-29T10:28:04;97777.53;;;26.98;69.13
64078;BME280;51039;49.696;10.808;2023-07-29T10:30:30;97780.94;;;26.86;67.42
64078;BME280;51039;49.696;10.808;2023-07-29T10:32:58;97782.09;;;26.76;66.94
64078;BME280;51039;49.696;10.808;2023-07-29T10:35:26;97787.97;;;27.43;65.33
64078;BME280;51039;49.696;10.808;2023-07-29T10:37:52;97779.38;;;26.85;66.20
64078;BME280;51039;49.696;10.808;2023-07-29T10:40:18;97781.47;;;26.53;68.27
64078;BME280;51039;49.696;10.808;2023-07-29T10:43:00;97772.31;;;25.71;70.04
64078;BME280;51039;49.696;10.808;2023-07-29T10:45:36;97782.69;;;24.88;72.27
64078;BME280;51039;49.696;10.808;2023-07-29T10:51:21;97775.63;;;24.56;72.91
64078;BME280;51039;49.696;10.808;2023-07-29T10:54:00;97774.63;;;25.06;72.15
64078;BME280;51039;49.696;10.808;2023-07-29T10:56:28;97779.41;;;26.68;68.12
64078;BME280;51039;49.696;10.808;2023-07-29T10:58:57;97784.50;;;26.78;65.75
64078;BME280;51039;49.696;10.808;2023-07-29T11:01:28;97765.44;;;26.87;64.35
64078;BME280;51039;49.696;10.808;2023-07-29T11:20:28;97763.00;;;27.02;63.50
64078;BME280;51039;49.696;10.808;2023-07-29T11:22:55;97757.59;;;27.32;61.59
64078;BME280;51039;49.696;10.808;2023-07-29T11:25:23;97757.34;;;27.16;61.33
64078;BME280;51039;49.696;10.808;2023-07-29T11:27:54;97745.63;;;26.86;62.07
64078;BME280;51039;49.696;10.808;2023-07-29T11:30:21;97752.59;;;27.05;61.63
64078;BME280;51039;49.696;10.808;2023-07-29T11:32:48;97745.13;;;27.61;60.33
64078;BME280;51039;49.696;10.808;2023-07-29T11:35:17;97754.81;;;28.22;59.46
64078;BME280;51039;49.696;10.808;2023-07-29T11:37:44;97758.97;;;28.40;58.50
64078;BME280;51039;49.696;10.808;2023-07-29T11:40:16;97758.91;;;27.17;60.17
64078;BME280;51039;49.696;10.808;2023-07-29T11:42:42;97752.72;;;26.61;63.73
64078;BME280;51039;49.696;10.808;2023-07-29T11:45:08;97751.81;;;26.95;65.15
64078;BME280;51039;49.696;10.808;2023-07-29T11:47:34;97748.88;;;27.48;60.86
64078;BME280;51039;49.696;10.808;2023-07-29T11:50:02;97745.06;;;27.10;60.38
64078;BME280;51039;49.696;10.808;2023-07-29T11:52:29;97745.66;;;27.25;60.83
64078;BME280;51039;49.696;10.808;2023-07-29T11:54:57;97746.81;;;26.33;61.80
64078;BME280;51039;49.696;10.808;2023-07-29T11:57:23;97746.66;;;26.64;61.93
64078;BME280;51039;49.696;10.808;2023-07-29T11:59:49;97749.53;;;26.41;63.98
64078;BME280;51039;49.696;10.808;2023-07-29T12:02:15;97736.16;;;26.10;62.91
64078;BME280;51039;49.696;10.808;2023-07-29T12:04:43;97747.59;;;25.72;64.67
64078;BME280;51039;49.696;10.808;2023-07-29T12:07:09;97739.16;;;26.17;63.31
64078;BME280;51039;49.696;10.808;2023-07-29T12:09:35;97734.50;;;26.53;62.70
64078;BME280;51039;49.696;10.808;2023-07-29T12:12:03;97738.50;;;26.47;62.06
64078;BME280;51039;49.696;10.808;2023-07-29T12:14:29;97745.22;;;26.32;63.51
64078;BME280;51039;49.696;10.808;2023-07-29T12:16:55;97737.91;;;26.97;62.00
64078;BME280;51039;49.696;10.808;2023-07-29T12:19:20;97733.56;;;26.49;61.73
64078;BME280;51039;49.696;10.808;2023-07-29T12:21:47;97725.47;;;26.87;63.35
64078;BME280;51039;49.696;10.808;2023-07-29T12:24:14;97715.69;;;26.95;60.91
64078;BME280;51039;49.696;10.808;2023-07-29T12:26:40;97710.47;;;26.81;62.57
64078;BME280;51039;49.696;10.808;2023-07-29T12:29:12;97709.91;;;26.96;62.35
64078;BME280;51039;49.696;10.808;2023-07-29T12:31:38;97711.50;;;26.41;62.04
64078;BME280;51039;49.696;10.808;2023-07-29T12:34:03;97708.38;;;27.25;62.67
64078;BME280;51039;49.696;10.808;2023-07-29T12:36:42;97709.38;;;27.12;61.17
64078;BME280;51039;49.696;10.808;2023-07-29T12:39:21;97707.47;;;26.74;59.14
64078;BME280;51039;49.696;10.808;2023-07-29T12:41:48;97704.16;;;26.51;60.90
64078;BME280;51039;49.696;10.808;2023-07-29T12:44:15;97703.13;;;26.81;60.39
64078;BME280;51039;49.696;10.808;2023-07-29T12:46:41;97694.91;;;26.90;58.76
64078;BME280;51039;49.696;10.808;2023-07-29T12:49:06;97702.91;;;26.95;57.78
64078;BME280;51039;49.696;10.808;2023-07-29T12:51:32;97699.81;;;26.58;58.85
64078;BME280;51039;49.696;10.808;2023-07-29T12:53:57;97701.09;;;26.61;60.02
64078;BME280;51039;49.696;10.808;2023-07-29T12:56:23;97705.13;;;26.29;61.45
64078;BME280;51039;49.696;10.808;2023-07-29T12:58:48;97702.72;;;26.44;59.32
64078;BME280;51039;49.696;10.808;2023-07-29T13:01:14;97695.38;;;26.45;58.86